sensor_id;sensor_type;location;lat;lon;timestamp;P1;durP1;ratioP1;P2;durP2;ratioP2
43626;SDS011;29217;52.586;13.442;2023-02-28T00:00:09;4.97;;;2.80;;
43626;SDS011;29217;52.586;13.442;2023-02-28T00:02:44;5.95;;;2.25;;
43626;SDS011;29217;52.586;13.442;2023-02-28T00:05:11;3.90;;;2.72;;
43626;SDS011;29217;52.586;13.442;2023-02-28T00:07:38;5.47;;;3.42;;
43626;SDS011;29217;52.586;13.442;2023-02-28T00:10:04;5.57;;;2.83;;
43626;SDS011;29217;52.586;13.442;2023-02-28T00:12:32;4.50;;;2.83;;
43626;SDS011;29217;52.586;13.442;2023-02-28T00:14:58;4.85;;;2.63;;
43626;SDS011;29217;52.586;13.442;2023-02-28T00:17:24;4.20;;;3.03;;
43626;SDS011;29217;52.586;13.442;2023-02-28T00:19:50;6.80;;;3.25;;
43626;SDS011;29217;52.586;13.442;2023-02-28T00:22:17;7.40;;;3.30;;
43626;SDS011;29217;52.586;13.442;2023-02-28T00:24:44;5.35;;;2.85;;
43626;SDS011;29217;52.586;13.442;2023-02-28T00:27:10;4.15;;;2.78;;
43626;SDS011;29217;52.586;13.442;2023-02-28T00:29:36;6.55;;;3.40;;
43626;SDS011;29217;52.586;13.442;2023-02-28T00:32:03;5.00;;;3.42;;
43626;SDS011;29217;52.586;13.442;2023-02-28T00:34:29;4.38;;;2.88;;
43626;SDS011;29217;52.586;13.442;2023-02-28T00:36:55;4.40;;;3.25;;
43626;SDS011;29217;52.586;13.442;2023-02-28T00:39:21;4.93;;;3.20;;
43626;SDS011;29217;52.586;13.442;2023-02-28T00:41:47;8.15;;;3.38;;
43626;SDS011;29217;52.586;13.442;2023-02-28T00:44:13;6.53;;;3.10;;
43626;SDS011;29217;52.586;13.442;2023-02-28T00:46:39;9.45;;;4.65;;
43626;SDS011;29217;52.586;13.442;2023-02-28T00:49:05;9.18;;;4.07;;
43626;SDS011;29217;52.586;13.442;2023-02-28T00:51:31;8.98;;;4.50;;
43626;SDS011;29217;52.586;13.442;2023-02-28T00:53:57;14.90;;;5.38;;
43626;SDS011;29217;52.586;13.442;2023-02-28T00:56:23;11.57;;;6.10;;
43626;SDS011;29217;52.586;13.442;2023-02-28T00:58:49;10.25;;;4.72;;
43626;SDS011;29217;52.586;13.442;2023-02-28T01:01:15;9.13;;;4.50;;
43626;SDS011;29217;52.586;13.442;2023-02-28T01:03:41;9.15;;;4.78;;
43626;SDS011;29217;52.586;13.442;2023-02-28T01:06:07;13.70;;;4.50;;
43626;SDS011;29217;52.586;13.442;2023-02-28T01:08:33;10.52;;;4.93;;
43626;SDS011;29217;52.586;13.442;2023-02-28T01:11:06;10.23;;;4.47;;
43626;SDS011;29217;52.586;13.442;2023-02-28T01:13:32;12.07;;;4.75;;
43626;SDS011;29217;52.586;13.442;2023-02-28T01:15:58;13.73;;;5.13;;
43626;SDS011;29217;52.586;13.442;2023-02-28T01:18:24;12.18;;;5.25;;
43626;SDS011;29217;52.586;13.442;2023-02-28T01:20:50;11.52;;;6.18;;
43626;SDS011;29217;52.586;13.442;2023-02-28T01:23:17;10.45;;;5.82;;
43626;SDS011;29217;52.586;13.442;2023-02-28T01:25:44;11.35;;;5.20;;
43626;SDS011;29217;52.586;13.442;2023-02-28T01:28:09;8.95;;;4.70;;
43626;SDS011;29217;52.586;13.442;2023-02-28T01:30:35;14.27;;;5.00;;
43626;SDS011;29217;52.586;13.442;2023-02-28T01:33:01;10.85;;;4.53;;
43626;SDS011;29217;52.586;13.442;2023-02-28T01:35:31;7.20;;;4.60;;
43626;SDS011;29217;52.586;13.442;2023-02-28T01:37:57;10.25;;;4.70;;
43626;SDS011;29217;52.586;13.442;2023-02-28T01:40:24;8.02;;;3.90;;
43626;SDS011;29217;52.586;13.442;2023-02-28T01:42:50;8.55;;;4.80;;
43626;SDS011;29217;52.586;13.442;2023-02-28T01:47:48;8.60;;;4.00;;
43626;SDS011;29217;52.586;13.442;2023-02-28T01:50:17;8.43;;;4.63;;
43626;SDS011;29217;52.586;13.442;2023-02-28T01:52:44;8.73;;;4.55;;
43626;SDS011;29217;52.586;13.442;2023-02-28T01:55:11;7.93;;;4.38;;
43626;SDS011;29217;52.586;13.442;2023-02-28T01:57:38;7.22;;;4.40;;
43626;SDS011;29217;52.586;13.442;2023-02-28T02:00:10;11.18;;;5.00;;
43626;SDS011;29217;52.586;13.442;2023-02-28T02:02:38;7.35;;;4.13;;
43626;SDS011;29217;52.586;13.442;2023-02-28T02:05:14;10.95;;;4.72;;
43626;SDS011;29217;52.586;13.442;2023-02-28T02:07:41;9.10;;;5.25;;
43626;SDS011;29217;52.586;13.442;2023-02-28T02:17:36;9.07;;;4.30;;
43626;SDS011;29217;52.586;13.442;2023-02-28T02:20:22;9.30;;;4.00;;
43626;SDS011;29217;52.586;13.442;2023-02-28T02:23:02;7.70;;;4.32;;
43626;SDS011;29217;52.586;13.442;2023-02-28T02:25:42;9.75;;;4.25;;
43626;SDS011;29217;52.586;13.442;2023-02-28T02:36:38;6.07;;;3.60;;
43626;SDS011;29217;52.586;13.442;2023-02-28T02:39:15;8.65;;;4.38;;
43626;SDS011;29217;52.586;13.442;2023-02-28T02:41:45;4.85;;;3.10;;
43626;SDS011;29217;52.586;13.442;2023-02-28T02:44:16;5.07;;;3.50;;
43626;SDS011;29217;52.586;13.442;2023-02-28T02:46:44;5.32;;;3.67;;
43626;SDS011;29217;52.586;13.442;2023-02-28T02:49:21;7.30;;;3.50;;
43626;SDS011;29217;52.586;13.442;2023-02-28T02:51:48;7.07;;;3.70;;
43626;SDS011;29217;52.586;13.442;2023-02-28T02:54:17;7.40;;;3.80;;
43626;SDS011;29217;52.586;13.442;2023-02-28T02:56:45;8.27;;;4.63;;
43626;SDS011;29217;52.586;13.442;2023-02-28T02:59:13;10.30;;;4.55;;
43626;SDS011;29217;52.586;13.442;2023-02-28T03:01:40;8.52;;;4.18;;
43626;SDS011;29217;52.586;13.442;2023-02-28T03:04:13;5.63;;;3.55;;
43626;SDS011;29217;52.586;13.442;2023-02-28T03:06:41;12.32;;;4.20;;
43626;SDS011;29217;52.586;13.442;2023-02-28T03:09:07;6.75;;;4.60;;
43626;SDS011;29217;52.586;13.442;2023-02-28T03:11:34;9.23;;;4.30;;
43626;SDS011;29217;52.586;13.442;2023-02-28T03:14:07;9.75;;;4.60;;
43626;SDS011;29217;52.586;13.442;2023-02-28T03:16:49;9.38;;;4.80;;
43626;SDS011;29217;52.586;13.442;2023-02-28T03:24:27;8.30;;;4.60;;
43626;SDS011;29217;52.586;13.442;2023-02-28T03:26:58;5.60;;;3.90;;
43626;SDS011;29217;52.586;13.442;2023-02-28T03:31:59;7.05;;;3.78;;
43626;SDS011;29217;52.586;13.442;2023-02-28T03:34:35;5.75;;;3.75;;
43626;SDS011;29217;52.586;13.442;2023-02-28T03:37:04;6.30;;;3.92;;
43626;SDS011;29217;52.586;13.442;2023-02-28T03:39:39;5.75;;;3.72;;
43626;SDS011;29217;52.586;13.442;2023-02-28T03:42:08;6.00;;;3.88;;
43626;SDS011;29217;52.586;13.442;2023-02-28T03:44:40;4.97;;;3.53;;
43626;SDS011;29217;52.586;13.442;2023-02-28T03:47:08;7.28;;;4.03;;
43626;SDS011;29217;52.586;13.442;2023-02-28T03:49:37;14.77;;;3.95;;
43626;SDS011;29217;52.586;13.442;2023-02-28T03:52:08;6.13;;;3.75;;
43626;SDS011;29217;52.586;13.442;2023-02-28T03:54:36;5.95;;;3.50;;
43626;SDS011;29217;52.586;13.442;2023-02-28T03:57:15;5.70;;;3.72;;
43626;SDS011;29217;52.586;13.442;2023-02-28T03:59:44;7.53;;;3.70;;
43626;SDS011;29217;52.586;13.442;2023-02-28T04:02:11;4.70;;;3.13;;
43626;SDS011;29217;52.586;13.442;2023-02-28T04:04:37;9.88;;;3.72;;
43626;SDS011;29217;52.586;13.442;2023-02-28T04:07:07;5.55;;;3.83;;
43626;SDS011;29217;52.586;13.442;2023-02-28T04:09:34;5.75;;;3.45;;
43626;SDS011;29217;52.586;13.442;2023-02-28T04:12:00;5.13;;;3.58;;
43626;SDS011;29217;52.586;13.442;2023-02-28T04:14:26;8.57;;;3.85;;
43626;SDS011;29217;52.586;13.442;2023-02-28T04:16:52;5.10;;;3.92;;
43626;SDS011;29217;52.586;13.442;2023-02-28T04:19:18;7.45;;;3.88;;
43626;SDS011;29217;52.586;13.442;2023-02-28T04:21:45;10.05;;;3.80;;
43626;SDS011;29217;52.586;13.442;2023-02-28T04:24:12;7.22;;;3.70;;
43626;SDS011;29217;52.586;13.442;2023-02-28T04:26:39;3.95;;;3.30;;
43626;SDS011;29217;52.586;13.442;2023-02-28T04:29:06;5.70;;;3.67;;
43626;SDS011;29217;52.586;13.442;2023-02-28T04:31:33;4.65;;;3.38;;
43626;SDS011;29217;52.586;13.442;2023-02-28T04:33:59;5.40;;;3.28;;
43626;SDS011;29217;52.586;13.442;2023-02-28T04:36:25;7.40;;;3.13;;
43626;SDS011;29217;52.586;13.442;2023-02-28T04:38:52;4.68;;;3.20;;
43626;SDS011;29217;52.586;13.442;2023-02-28T04:41:18;4.47;;;3.42;;
43626;SDS011;29217;52.586;13.442;2023-02-28T04:43:44;4.55;;;3.35;;
43626;SDS011;29217;52.586;13.442;2023-02-28T04:46:10;6.88;;;3.17;;
43626;SDS011;29217;52.586;13.442;2023-02-28T04:48:37;4.00;;;3.10;;
43626;SDS011;29217;52.586;13.442;2023-02-28T04:51:08;6.88;;;3.40;;
43626;SDS011;29217;52.586;13.442;2023-02-28T04:53:35;3.83;;;3.08;;
43626;SDS011;29217;52.586;13.442;2023-02-28T04:56:01;4.00;;;3.33;;
43626;SDS011;29217;52.586;13.442;2023-02-28T04:58:27;5.47;;;3.35;;
43626;SDS011;29217;52.586;13.442;2023-02-28T05:00:56;7.32;;;4.03;;
43626;SDS011;29217;52.586;13.442;2023-02-28T05:03:26;6.25;;;3.95;;
43626;SDS011;29217;52.586;13.442;2023-02-28T05:05:52;7.28;;;3.67;;
43626;SDS011;29217;52.586;13.442;2023-02-28T05:08:18;6.93;;;4.03;;
43626;SDS011;29217;52.586;13.442;2023-02-28T05:10:44;4.57;;;3.58;;
43626;SDS011;29217;52.586;13.442;2023-02-28T05:13:13;5.13;;;4.22;;
43626;SDS011;29217;52.586;13.442;2023-02-28T05:15:39;6.75;;;3.88;;
43626;SDS011;29217;52.586;13.442;2023-02-28T05:18:05;6.47;;;3.55;;
43626;SDS011;29217;52.586;13.442;2023-02-28T05:20:31;7.00;;;4.47;;
43626;SDS011;29217;52.586;13.442;2023-02-28T05:22:57;8.43;;;4.75;;
43626;SDS011;29217;52.586;13.442;2023-02-28T05:25:24;7.05;;;4.70;;
43626;SDS011;29217;52.586;13.442;2023-02-28T05:27:50;8.23;;;4.15;;
43626;SDS011;29217;52.586;13.442;2023-02-28T05:30:16;7.30;;;4.82;;
43626;SDS011;29217;52.586;13.442;2023-02-28T05:32:42;8.07;;;4.50;;
43626;SDS011;29217;52.586;13.442;2023-02-28T05:35:09;6.97;;;3.90;;
43626;SDS011;29217;52.586;13.442;2023-02-28T05:37:35;7.40;;;4.40;;
43626;SDS011;29217;52.586;13.442;2023-02-28T05:40:02;12.25;;;4.45;;
43626;SDS011;29217;52.586;13.442;2023-02-28T05:42:31;4.18;;;3.17;;
43626;SDS011;29217;52.586;13.442;2023-02-28T05:44:57;6.15;;;4.00;;
43626;SDS011;29217;52.586;13.442;2023-02-28T05:47:23;5.18;;;3.92;;
43626;SDS011;29217;52.586;13.442;2023-02-28T05:49:49;5.57;;;3.47;;
43626;SDS011;29217;52.586;13.442;2023-02-28T05:52:15;5.72;;;3.83;;
43626;SDS011;29217;52.586;13.442;2023-02-28T05:54:42;5.53;;;3.80;;
43626;SDS011;29217;52.586;13.442;2023-02-28T05:57:08;8.48;;;3.72;;
43626;SDS011;29217;52.586;13.442;2023-02-28T05:59:33;5.78;;;4.28;;
43626;SDS011;29217;52.586;13.442;2023-02-28T06:02:00;13.10;;;3.90;;
43626;SDS011;29217;52.586;13.442;2023-02-28T06:04:25;6.70;;;4.13;;
43626;SDS011;29217;52.586;13.442;2023-02-28T06:06:51;7.03;;;3.78;;
43626;SDS011;29217;52.586;13.442;2023-02-28T06:09:18;7.65;;;4.50;;
43626;SDS011;29217;52.586;13.442;2023-02-28T06:11:44;6.05;;;3.67;;
43626;SDS011;29217;52.586;13.442;2023-02-28T06:14:13;7.53;;;3.83;;
43626;SDS011;29217;52.586;13.442;2023-02-28T06:16:40;7.60;;;4.18;;
43626;SDS011;29217;52.586;13.442;2023-02-28T06:19:06;6.22;;;3.67;;
43626;SDS011;29217;52.586;13.442;2023-02-28T06:21:33;8.23;;;4.25;;
43626;SDS011;29217;52.586;13.442;2023-02-28T06:23:59;4.97;;;3.45;;
43626;SDS011;29217;52.586;13.442;2023-02-28T06:26:25;7.40;;;4.35;;
43626;SDS011;29217;52.586;13.442;2023-02-28T06:28:51;6.13;;;3.55;;
43626;SDS011;29217;52.586;13.442;2023-02-28T06:31:17;6.70;;;3.80;;
43626;SDS011;29217;52.586;13.442;2023-02-28T06:33:43;9.15;;;4.50;;
43626;SDS011;29217;52.586;13.442;2023-02-28T06:36:10;8.55;;;4.43;;
43626;SDS011;29217;52.586;13.442;2023-02-28T06:38:37;5.95;;;3.97;;
43626;SDS011;29217;52.586;13.442;2023-02-28T06:41:03;6.55;;;4.07;;
43626;SDS011;29217;52.586;13.442;2023-02-28T06:43:31;7.45;;;4.70;;
43626;SDS011;29217;52.586;13.442;2023-02-28T06:45:58;8.02;;;4.80;;
43626;SDS011;29217;52.586;13.442;2023-02-28T06:48:25;9.82;;;5.05;;
43626;SDS011;29217;52.586;13.442;2023-02-28T06:50:51;17.67;;;7.20;;
43626;SDS011;29217;52.586;13.442;2023-02-28T06:53:17;10.88;;;5.10;;
43626;SDS011;29217;52.586;13.442;2023-02-28T06:55:43;22.38;;;8.45;;
43626;SDS011;29217;52.586;13.442;2023-02-28T06:58:09;24.88;;;9.20;;
43626;SDS011;29217;52.586;13.442;2023-02-28T07:00:45;18.02;;;8.30;;
43626;SDS011;29217;52.586;13.442;2023-02-28T07:03:12;23.27;;;8.55;;
43626;SDS011;29217;52.586;13.442;2023-02-28T07:05:39;22.23;;;8.23;;
43626;SDS011;29217;52.586;13.442;2023-02-28T07:08:05;17.10;;;8.25;;
43626;SDS011;29217;52.586;13.442;2023-02-28T07:10:34;19.13;;;8.15;;
43626;SDS011;29217;52.586;13.442;2023-02-28T07:13:02;14.10;;;7.20;;
43626;SDS011;29217;52.586;13.442;2023-02-28T07:15:28;16.67;;;6.90;;
43626;SDS011;29217;52.586;13.442;2023-02-28T07:17:54;10.85;;;5.88;;
43626;SDS011;29217;52.586;13.442;2023-02-28T07:20:21;14.75;;;6.05;;
43626;SDS011;29217;52.586;13.442;2023-02-28T07:22:48;12.55;;;6.38;;
43626;SDS011;29217;52.586;13.442;2023-02-28T07:25:20;16.80;;;7.05;;
43626;SDS011;29217;52.586;13.442;2023-02-28T07:27:46;19.33;;;7.63;;
43626;SDS011;29217;52.586;13.442;2023-02-28T07:30:12;13.27;;;6.90;;
43626;SDS011;29217;52.586;13.442;2023-02-28T07:32:38;15.98;;;8.05;;
43626;SDS011;29217;52.586;13.442;2023-02-28T07:35:04;15.20;;;7.95;;
43626;SDS011;29217;52.586;13.442;2023-02-28T07:37:30;16.65;;;7.85;;
43626;SDS011;29217;52.586;13.442;2023-02-28T07:40:01;13.60;;;6.90;;
43626;SDS011;29217;52.586;13.442;2023-02-28T07:42:29;15.73;;;7.18;;
43626;SDS011;29217;52.586;13.442;2023-02-28T07:44:55;13.60;;;7.13;;
43626;SDS011;29217;52.586;13.442;2023-02-28T07:47:20;12.95;;;7.22;;
43626;SDS011;29217;52.586;13.442;2023-02-28T07:49:46;13.02;;;7.07;;
43626;SDS011;29217;52.586;13.442;2023-02-28T07:52:12;15.57;;;8.23;;
43626;SDS011;29217;52.586;13.442;2023-02-28T07:54:38;15.05;;;7.10;;
43626;SDS011;29217;52.586;13.442;2023-02-28T07:57:04;14.98;;;7.10;;
43626;SDS011;29217;52.586;13.442;2023-02-28T07:59:30;21.10;;;7.43;;
43626;SDS011;29217;52.586;13.442;2023-02-28T08:01:57;15.27;;;6.88;;
43626;SDS011;29217;52.586;13.442;2023-02-28T08:04:23;12.23;;;6.82;;
43626;SDS011;29217;52.586;13.442;2023-02-28T08:06:49;13.88;;;6.60;;
43626;SDS011;29217;52.586;13.442;2023-02-28T08:09:17;11.98;;;6.88;;
43626;SDS011;29217;52.586;13.442;2023-02-28T08:11:43;11.02;;;5.47;;
43626;SDS011;29217;52.586;13.442;2023-02-28T08:14:09;11.35;;;5.60;;
43626;SDS011;29217;52.586;13.442;2023-02-28T08:16:35;10.30;;;4.95;;
43626;SDS011;29217;52.586;13.442;2023-02-28T08:19:01;8.70;;;5.30;;
43626;SDS011;29217;52.586;13.442;2023-02-28T08:21:27;10.00;;;5.65;;
43626;SDS011;29217;52.586;13.442;2023-02-28T08:23:53;9.13;;;5.20;;
43626;SDS011;29217;52.586;13.442;2023-02-28T08:26:19;7.82;;;4.60;;
43626;SDS011;29217;52.586;13.442;2023-02-28T08:28:45;8.88;;;4.32;;
43626;SDS011;29217;52.586;13.442;2023-02-28T08:31:12;7.60;;;3.10;;
43626;SDS011;29217;52.586;13.442;2023-02-28T08:33:39;6.35;;;3.25;;
43626;SDS011;29217;52.586;13.442;2023-02-28T08:36:05;3.72;;;2.78;;
43626;SDS011;29217;52.586;13.442;2023-02-28T08:38:31;4.82;;;2.58;;
43626;SDS011;29217;52.586;13.442;2023-02-28T08:40:58;4.57;;;2.88;;
43626;SDS011;29217;52.586;13.442;2023-02-28T08:43:25;2.35;;;2.03;;
43626;SDS011;29217;52.586;13.442;2023-02-28T08:45:51;5.15;;;2.90;;
43626;SDS011;29217;52.586;13.442;2023-02-28T08:48:17;4.93;;;2.63;;
43626;SDS011;29217;52.586;13.442;2023-02-28T08:50:43;5.90;;;2.92;;
43626;SDS011;29217;52.586;13.442;2023-02-28T08:53:09;5.72;;;2.70;;
43626;SDS011;29217;52.586;13.442;2023-02-28T08:55:35;4.53;;;2.40;;
43626;SDS011;29217;52.586;13.442;2023-02-28T08:58:01;5.63;;;2.90;;
43626;SDS011;29217;52.586;13.442;2023-02-28T09:00:27;5.35;;;2.92;;
43626;SDS011;29217;52.586;13.442;2023-02-28T09:02:53;6.30;;;3.28;;
43626;SDS011;29217;52.586;13.442;2023-02-28T09:05:19;5.50;;;2.88;;
43626;SDS011;29217;52.586;13.442;2023-02-28T09:07:45;5.38;;;2.78;;
43626;SDS011;29217;52.586;13.442;2023-02-28T09:10:11;4.47;;;2.90;;
43626;SDS011;29217;52.586;13.442;2023-02-28T09:12:37;6.20;;;2.90;;
43626;SDS011;29217;52.586;13.442;2023-02-28T09:15:03;4.25;;;2.72;;
43626;SDS011;29217;52.586;13.442;2023-02-28T09:17:30;3.90;;;1.95;;
43626;SDS011;29217;52.586;13.442;2023-02-28T09:19:56;3.08;;;1.98;;
43626;SDS011;29217;52.586;13.442;2023-02-28T09:22:22;2.53;;;2.25;;
43626;SDS011;29217;52.586;13.442;2023-02-28T09:24:48;4.57;;;2.20;;
43626;SDS011;29217;52.586;13.442;2023-02-28T09:27:13;3.58;;;1.88;;
43626;SDS011;29217;52.586;13.442;2023-02-28T09:29:39;3.40;;;2.17;;
43626;SDS011;29217;52.586;13.442;2023-02-28T09:32:05;4.38;;;2.20;;
43626;SDS011;29217;52.586;13.442;2023-02-28T09:34:31;2.92;;;1.95;;
43626;SDS011;29217;52.586;13.442;2023-02-28T09:36:57;3.03;;;1.83;;
43626;SDS011;29217;52.586;13.442;2023-02-28T09:39:23;1.70;;;1.60;;
43626;SDS011;29217;52.586;13.442;2023-02-28T09:41:51;4.10;;;1.95;;
43626;SDS011;29217;52.586;13.442;2023-02-28T09:44:31;2.38;;;1.60;;
43626;SDS011;29217;52.586;13.442;2023-02-28T09:47:00;3.22;;;1.73;;
43626;SDS011;29217;52.586;13.442;2023-02-28T09:49:40;2.97;;;2.05;;
43626;SDS011;29217;52.586;13.442;2023-02-28T09:52:10;2.03;;;1.75;;
43626;SDS011;29217;52.586;13.442;2023-02-28T09:54:37;1.92;;;1.50;;
43626;SDS011;29217;52.586;13.442;2023-02-28T09:57:19;1.80;;;1.65;;
43626;SDS011;29217;52.586;13.442;2023-02-28T10:00:02;2.88;;;1.58;;
43626;SDS011;29217;52.586;13.442;2023-02-28T10:05:24;4.22;;;1.77;;
43626;SDS011;29217;52.586;13.442;2023-02-28T10:08:11;2.70;;;1.65;;
43626;SDS011;29217;52.586;13.442;2023-02-28T10:10:43;1.63;;;1.42;;
43626;SDS011;29217;52.586;13.442;2023-02-28T10:13:14;1.50;;;1.40;;
43626;SDS011;29217;52.586;13.442;2023-02-28T10:15:41;2.65;;;1.63;;
43626;SDS011;29217;52.586;13.442;2023-02-28T10:18:11;1.33;;;1.23;;
43626;SDS011;29217;52.586;13.442;2023-02-28T10:20:39;1.92;;;1.50;;
43626;SDS011;29217;52.586;13.442;2023-02-28T10:23:11;2.00;;;1.55;;
43626;SDS011;29217;52.586;13.442;2023-02-28T10:25:40;1.92;;;1.50;;
43626;SDS011;29217;52.586;13.442;2023-02-28T10:30:34;2.67;;;1.50;;
43626;SDS011;29217;52.586;13.442;2023-02-28T10:33:01;5.22;;;2.17;;
43626;SDS011;29217;52.586;13.442;2023-02-28T10:35:26;2.10;;;1.65;;
43626;SDS011;29217;52.586;13.442;2023-02-28T10:37:53;1.75;;;1.33;;
43626;SDS011;29217;52.586;13.442;2023-02-28T10:42:55;5.18;;;1.40;;
43626;SDS011;29217;52.586;13.442;2023-02-28T10:45:22;2.78;;;1.80;;
43626;SDS011;29217;52.586;13.442;2023-02-28T10:52:55;2.88;;;1.60;;
43626;SDS011;29217;52.586;13.442;2023-02-28T10:55:30;1.98;;;1.40;;
43626;SDS011;29217;52.586;13.442;2023-02-28T10:57:56;3.65;;;1.38;;
43626;SDS011;29217;52.586;13.442;2023-02-28T11:00:23;2.47;;;1.30;;
43626;SDS011;29217;52.586;13.442;2023-02-28T11:02:52;2.63;;;1.55;;
43626;SDS011;29217;52.586;13.442;2023-02-28T11:05:29;4.78;;;1.83;;
43626;SDS011;29217;52.586;13.442;2023-02-28T11:08:02;2.65;;;1.70;;
43626;SDS011;29217;52.586;13.442;2023-02-28T11:10:30;3.45;;;1.67;;
43626;SDS011;29217;52.586;13.442;2023-02-28T11:12:59;4.18;;;1.90;;
43626;SDS011;29217;52.586;13.442;2023-02-28T11:15:29;4.00;;;1.77;;
43626;SDS011;29217;52.586;13.442;2023-02-28T11:18:00;3.28;;;1.83;;
43626;SDS011;29217;52.586;13.442;2023-02-28T11:20:28;2.00;;;1.70;;
43626;SDS011;29217;52.586;13.442;2023-02-28T11:22:55;2.88;;;1.63;;
43626;SDS011;29217;52.586;13.442;2023-02-28T11:25:26;3.17;;;1.80;;
43626;SDS011;29217;52.586;13.442;2023-02-28T11:27:56;3.03;;;1.63;;
43626;SDS011;29217;52.586;13.442;2023-02-28T11:30:40;3.85;;;2.25;;
43626;SDS011;29217;52.586;13.442;2023-02-28T11:35:49;6.93;;;3.20;;
43626;SDS011;29217;52.586;13.442;2023-02-28T11:38:15;3.55;;;2.15;;
43626;SDS011;29217;52.586;13.442;2023-02-28T11:48:42;3.15;;;2.40;;
43626;SDS011;29217;52.586;13.442;2023-02-28T12:02:32;6.10;;;2.10;;
43626;SDS011;29217;52.586;13.442;2023-02-28T12:05:11;3.25;;;1.90;;
43626;SDS011;29217;52.586;13.442;2023-02-28T12:10:18;4.00;;;2.10;;
43626;SDS011;29217;52.586;13.442;2023-02-28T12:28:11;3.97;;;1.85;;
43626;SDS011;29217;52.586;13.442;2023-02-28T12:30:38;3.85;;;2.35;;
43626;SDS011;29217;52.586;13.442;2023-02-28T12:33:12;3.78;;;2.00;;
43626;SDS011;29217;52.586;13.442;2023-02-28T12:35:41;3.10;;;2.00;;
43626;SDS011;29217;52.586;13.442;2023-02-28T12:38:13;7.25;;;2.00;;
43626;SDS011;29217;52.586;13.442;2023-02-28T12:40:50;6.43;;;2.10;;
43626;SDS011;29217;52.586;13.442;2023-02-28T12:43:17;3.58;;;2.10;;
43626;SDS011;29217;52.586;13.442;2023-02-28T12:48:13;4.43;;;2.00;;
43626;SDS011;29217;52.586;13.442;2023-02-28T12:50:40;4.15;;;2.10;;
43626;SDS011;29217;52.586;13.442;2023-02-28T12:53:08;2.80;;;1.88;;
43626;SDS011;29217;52.586;13.442;2023-02-28T12:58:07;3.85;;;2.10;;
43626;SDS011;29217;52.586;13.442;2023-02-28T13:00:35;4.60;;;2.40;;
43626;SDS011;29217;52.586;13.442;2023-02-28T13:05:53;3.67;;;2.10;;
43626;SDS011;29217;52.586;13.442;2023-02-28T13:11:06;4.43;;;2.28;;
43626;SDS011;29217;52.586;13.442;2023-02-28T13:13:32;3.25;;;2.17;;
43626;SDS011;29217;52.586;13.442;2023-02-28T13:16:05;4.07;;;1.95;;
43626;SDS011;29217;52.586;13.442;2023-02-28T13:18:33;6.22;;;2.40;;
43626;SDS011;29217;52.586;13.442;2023-02-28T13:21:02;3.00;;;2.00;;
43626;SDS011;29217;52.586;13.442;2023-02-28T13:23:55;4.68;;;2.20;;
43626;SDS011;29217;52.586;13.442;2023-02-28T13:34:26;3.78;;;1.90;;
43626;SDS011;29217;52.586;13.442;2023-02-28T13:36:53;2.47;;;1.80;;
43626;SDS011;29217;52.586;13.442;2023-02-28T13:42:49;4.47;;;2.30;;
43626;SDS011;29217;52.586;13.442;2023-02-28T13:47:41;4.03;;;2.05;;
43626;SDS011;29217;52.586;13.442;2023-02-28T13:56:03;4.70;;;2.50;;
43626;SDS011;29217;52.586;13.442;2023-02-28T13:58:35;4.55;;;1.83;;
43626;SDS011;29217;52.586;13.442;2023-02-28T14:06:25;2.33;;;2.00;;
43626;SDS011;29217;52.586;13.442;2023-02-28T14:08:56;4.18;;;2.30;;
43626;SDS011;29217;52.586;13.442;2023-02-28T14:11:36;4.28;;;2.70;;
43626;SDS011;29217;52.586;13.442;2023-02-28T14:14:03;6.88;;;2.10;;
43626;SDS011;29217;52.586;13.442;2023-02-28T14:16:43;6.80;;;2.33;;
43626;SDS011;29217;52.586;13.442;2023-02-28T14:19:11;5.30;;;2.60;;
43626;SDS011;29217;52.586;13.442;2023-02-28T14:21:39;3.10;;;1.90;;
43626;SDS011;29217;52.586;13.442;2023-02-28T14:32:37;3.78;;;1.65;;
43626;SDS011;29217;52.586;13.442;2023-02-28T14:35:19;4.00;;;2.10;;
43626;SDS011;29217;52.586;13.442;2023-02-28T14:37:46;3.58;;;2.33;;
43626;SDS011;29217;52.586;13.442;2023-02-28T14:40:32;6.70;;;2.63;;
43626;SDS011;29217;52.586;13.442;2023-02-28T14:42:59;3.85;;;2.17;;
43626;SDS011;29217;52.586;13.442;2023-02-28T14:45:27;4.50;;;1.70;;
43626;SDS011;29217;52.586;13.442;2023-02-28T14:47:55;3.55;;;2.05;;
43626;SDS011;29217;52.586;13.442;2023-02-28T14:50:23;4.20;;;1.98;;
43626;SDS011;29217;52.586;13.442;2023-02-28T14:52:52;3.67;;;2.08;;
43626;SDS011;29217;52.586;13.442;2023-02-28T14:55:20;2.97;;;2.00;;
43626;SDS011;29217;52.586;13.442;2023-02-28T14:57:59;3.80;;;2.25;;
43626;SDS011;29217;52.586;13.442;2023-02-28T15:05:52;5.80;;;2.50;;
43626;SDS011;29217;52.586;13.442;2023-02-28T15:08:18;3.20;;;2.08;;
43626;SDS011;29217;52.586;13.442;2023-02-28T15:10:51;3.70;;;2.53;;
43626;SDS011;29217;52.586;13.442;2023-02-28T15:13:18;3.22;;;2.08;;
43626;SDS011;29217;52.586;13.442;2023-02-28T15:18:21;3.10;;;2.20;;
43626;SDS011;29217;52.586;13.442;2023-02-28T15:20:49;3.42;;;2.40;;
43626;SDS011;29217;52.586;13.442;2023-02-28T15:23:16;4.72;;;2.70;;
43626;SDS011;29217;52.586;13.442;2023-02-28T15:25:43;2.97;;;2.13;;
43626;SDS011;29217;52.586;13.442;2023-02-28T15:28:11;5.57;;;2.47;;
43626;SDS011;29217;52.586;13.442;2023-02-28T15:30:40;7.43;;;3.30;;
43626;SDS011;29217;52.586;13.442;2023-02-28T15:33:20;4.70;;;2.42;;
43626;SDS011;29217;52.586;13.442;2023-02-28T15:35:46;5.13;;;2.92;;
43626;SDS011;29217;52.586;13.442;2023-02-28T15:48:17;5.13;;;2.83;;
43626;SDS011;29217;52.586;13.442;2023-02-28T15:50:44;6.53;;;2.67;;
43626;SDS011;29217;52.586;13.442;2023-02-28T15:53:14;6.57;;;3.63;;
43626;SDS011;29217;52.586;13.442;2023-02-28T15:55:41;10.32;;;3.65;;
43626;SDS011;29217;52.586;13.442;2023-02-28T15:58:08;5.20;;;3.00;;
43626;SDS011;29217;52.586;13.442;2023-02-28T16:00:36;8.10;;;3.15;;
43626;SDS011;29217;52.586;13.442;2023-02-28T16:03:22;6.63;;;2.78;;
43626;SDS011;29217;52.586;13.442;2023-02-28T16:06:07;4.43;;;3.13;;
43626;SDS011;29217;52.586;13.442;2023-02-28T16:08:33;6.90;;;3.15;;
43626;SDS011;29217;52.586;13.442;2023-02-28T16:10:59;6.72;;;3.58;;
43626;SDS011;29217;52.586;13.442;2023-02-28T16:13:25;6.68;;;3.28;;
43626;SDS011;29217;52.586;13.442;2023-02-28T16:15:51;9.70;;;4.05;;
43626;SDS011;29217;52.586;13.442;2023-02-28T16:18:17;5.35;;;3.38;;
43626;SDS011;29217;52.586;13.442;2023-02-28T16:20:43;8.73;;;3.83;;
43626;SDS011;29217;52.586;13.442;2023-02-28T16:23:09;6.40;;;3.70;;
43626;SDS011;29217;52.586;13.442;2023-02-28T16:25:39;10.15;;;3.45;;
43626;SDS011;29217;52.586;13.442;2023-02-28T16:28:11;8.75;;;3.78;;
43626;SDS011;29217;52.586;13.442;2023-02-28T16:30:38;12.05;;;5.10;;
43626;SDS011;29217;52.586;13.442;2023-02-28T16:33:04;8.73;;;4.78;;
43626;SDS011;29217;52.586;13.442;2023-02-28T16:35:30;7.78;;;3.78;;
43626;SDS011;29217;52.586;13.442;2023-02-28T16:37:56;8.52;;;4.70;;
43626;SDS011;29217;52.586;13.442;2023-02-28T16:40:23;7.13;;;3.75;;
43626;SDS011;29217;52.586;13.442;2023-02-28T16:42:55;13.15;;;6.25;;
43626;SDS011;29217;52.586;13.442;2023-02-28T16:45:24;20.60;;;8.95;;
43626;SDS011;29217;52.586;13.442;2023-02-28T16:47:51;15.05;;;7.45;;
43626;SDS011;29217;52.586;13.442;2023-02-28T16:50:27;13.60;;;7.22;;
43626;SDS011;29217;52.586;13.442;2023-02-28T16:52:53;18.85;;;7.03;;
43626;SDS011;29217;52.586;13.442;2023-02-28T16:55:20;15.80;;;7.43;;
43626;SDS011;29217;52.586;13.442;2023-02-28T16:57:53;17.33;;;8.25;;